sensor_id;sensor_type;location;lat;lon;timestamp;temperature;humidity
28767;DHT22;15921;52.034;20.650;2024-02-23T00:02:18;8.80;99.90
28767;DHT22;15921;52.034;20.650;2024-02-23T00:04:44;8.80;99.90
28767;DHT22;15921;52.034;20.650;2024-02-23T00:07:10;8.80;99.90
28767;DHT22;15921;52.034;20.650;2024-02-23T00:09:37;8.80;99.90
28767;DHT22;15921;52.034;20.650;2024-02-23T00:12:03;8.80;99.90
28767;DHT22;15921;52.034;20.650;2024-02-23T00:14:30;8.80;99.90
28767;DHT22;15921;52.034;20.650;2024-02-23T00:16:56;8.80;99.90
28767;DHT22;15921;52.034;20.650;2024-02-23T00:19:24;8.80;99.90
28767;DHT22;15921;52.034;20.650;2024-02-23T00:21:50;8.80;99.90
28767;DHT22;15921;52.034;20.650;2024-02-23T00:24:18;8.80;99.90
28767;DHT22;15921;52.034;20.650;2024-02-23T00:26:47;8.80;99.90
28767;DHT22;15921;52.034;20.650;2024-02-23T00:29:13;8.80;99.90
28767;DHT22;15921;52.034;20.650;2024-02-23T00:31:39;8.70;99.90
28767;DHT22;15921;52.034;20.650;2024-02-23T00:34:08;8.70;99.90
28767;DHT22;15921;52.034;20.650;2024-02-23T00:36:42;8.70;99.90
28767;DHT22;15921;52.034;20.650;2024-02-23T00:39:10;8.70;99.90
28767;DHT22;15921;52.034;20.650;2024-02-23T00:41:36;8.70;99.90
28767;DHT22;15921;52.034;20.650;2024-02-23T00:44:05;8.70;99.90
28767;DHT22;15921;52.034;20.650;2024-02-23T00:46:31;8.70;99.90
28767;DHT22;15921;52.034;20.650;2024-02-23T00:48:57;8.80;99.90
28767;DHT22;15921;52.034;20.650;2024-02-23T00:51:22;8.80;99.90
28767;DHT22;15921;52.034;20.650;2024-02-23T00:53:48;8.80;99.90
28767;DHT22;15921;52.034;20.650;2024-02-23T00:56:14;8.80;99.90
28767;DHT22;15921;52.034;20.650;2024-02-23T00:58:40;8.80;99.90
28767;DHT22;15921;52.034;20.650;2024-02-23T01:01:05;8.80;99.90
28767;DHT22;15921;52.034;20.650;2024-02-23T01:03:31;8.80;99.90
28767;DHT22;15921;52.034;20.650;2024-02-23T01:05:57;8.80;99.90
28767;DHT22;15921;52.034;20.650;2024-02-23T01:08:22;8.80;99.90
28767;DHT22;15921;52.034;20.650;2024-02-23T01:10:48;8.80;99.90
28767;DHT22;15921;52.034;20.650;2024-02-23T01:13:14;8.80;99.90
28767;DHT22;15921;52.034;20.650;2024-02-23T01:15:41;8.80;99.90
28767;DHT22;15921;52.034;20.650;2024-02-23T01:18:06;8.80;99.90
28767;DHT22;15921;52.034;20.650;2024-02-23T01:20:33;8.80;99.90
28767;DHT22;15921;52.034;20.650;2024-02-23T01:22:59;8.80;99.90
28767;DHT22;15921;52.034;20.650;2024-02-23T01:25:25;8.80;99.90
28767;DHT22;15921;52.034;20.650;2024-02-23T01:27:50;8.80;99.90
28767;DHT22;15921;52.034;20.650;2024-02-23T01:30:16;8.80;99.90
28767;DHT22;15921;52.034;20.650;2024-02-23T01:32:42;8.80;99.90
28767;DHT22;15921;52.034;20.650;2024-02-23T01:35:08;8.80;99.90
28767;DHT22;15921;52.034;20.650;2024-02-23T01:37:34;8.80;99.90
28767;DHT22;15921;52.034;20.650;2024-02-23T01:40:00;8.80;99.90
28767;DHT22;15921;52.034;20.650;2024-02-23T01:42:26;8.80;99.90
28767;DHT22;15921;52.034;20.650;2024-02-23T01:44:52;8.80;99.90
28767;DHT22;15921;52.034;20.650;2024-02-23T01:47:18;8.80;99.90
28767;DHT22;15921;52.034;20.650;2024-02-23T01:49:46;8.80;99.90
28767;DHT22;15921;52.034;20.650;2024-02-23T01:52:13;8.80;99.90
28767;DHT22;15921;52.034;20.650;2024-02-23T01:54:39;8.80;99.90
28767;DHT22;15921;52.034;20.650;2024-02-23T01:57:06;8.80;99.90
28767;DHT22;15921;52.034;20.650;2024-02-23T01:59:32;8.80;99.90
28767;DHT22;15921;52.034;20.650;2024-02-23T02:01:58;8.80;99.90
28767;DHT22;15921;52.034;20.650;2024-02-23T02:04:23;8.80;99.90
28767;DHT22;15921;52.034;20.650;2024-02-23T02:06:49;8.80;99.90
28767;DHT22;15921;52.034;20.650;2024-02-23T02:09:15;8.80;99.90
28767;DHT22;15921;52.034;20.650;2024-02-23T02:11:48;8.80;99.90
28767;DHT22;15921;52.034;20.650;2024-02-23T02:14:14;8.90;99.90
28767;DHT22;15921;52.034;20.650;2024-02-23T02:16:40;8.90;99.90
28767;DHT22;15921;52.034;20.650;2024-02-23T02:19:06;8.90;99.90
28767;DHT22;15921;52.034;20.650;2024-02-23T02:21:32;8.90;99.90
28767;DHT22;15921;52.034;20.650;2024-02-23T02:23:59;9.00;99.90
28767;DHT22;15921;52.034;20.650;2024-02-23T02:26:24;9.00;99.90
28767;DHT22;15921;52.034;20.650;2024-02-23T02:28:50;9.00;99.90
28767;DHT22;15921;52.034;20.650;2024-02-23T02:31:16;9.00;99.90
28767;DHT22;15921;52.034;20.650;2024-02-23T02:33:41;9.10;99.90
28767;DHT22;15921;52.034;20.650;2024-02-23T02:36:07;9.10;99.90
28767;DHT22;15921;52.034;20.650;2024-02-23T02:38:33;9.10;99.90
28767;DHT22;15921;52.034;20.650;2024-02-23T02:40:59;9.10;99.90
28767;DHT22;15921;52.034;20.650;2024-02-23T02:43:26;9.20;99.90
28767;DHT22;15921;52.034;20.650;2024-02-23T02:45:52;9.20;99.90
28767;DHT22;15921;52.034;20.650;2024-02-23T02:48:18;9.20;99.90
28767;DHT22;15921;52.034;20.650;2024-02-23T02:50:43;9.30;99.90
28767;DHT22;15921;52.034;20.650;2024-02-23T02:53:10;9.30;99.90
28767;DHT22;15921;52.034;20.650;2024-02-23T02:55:36;9.30;99.90
28767;DHT22;15921;52.034;20.650;2024-02-23T02:58:02;9.40;99.90
28767;DHT22;15921;52.034;20.650;2024-02-23T03:00:28;9.30;99.90
28767;DHT22;15921;52.034;20.650;2024-02-23T03:02:54;9.30;99.90
28767;DHT22;15921;52.034;20.650;2024-02-23T03:05:19;9.30;99.90
28767;DHT22;15921;52.034;20.650;2024-02-23T03:07:45;9.30;99.90
28767;DHT22;15921;52.034;20.650;2024-02-23T03:10:11;9.20;99.90
28767;DHT22;15921;52.034;20.650;2024-02-23T03:12:37;9.20;99.90
28767;DHT22;15921;52.034;20.650;2024-02-23T03:15:03;9.20;99.90
28767;DHT22;15921;52.034;20.650;2024-02-23T03:17:29;9.20;99.90
28767;DHT22;15921;52.034;20.650;2024-02-23T03:19:55;9.20;99.90
28767;DHT22;15921;52.034;20.650;2024-02-23T03:22:20;9.10;99.90
28767;DHT22;15921;52.034;20.650;2024-02-23T03:24:46;9.10;99.90
28767;DHT22;15921;52.034;20.650;2024-02-23T03:27:12;9.10;99.90
28767;DHT22;15921;52.034;20.650;2024-02-23T03:29:38;9.10;99.90
28767;DHT22;15921;52.034;20.650;2024-02-23T03:32:05;9.00;99.90
28767;DHT22;15921;52.034;20.650;2024-02-23T03:34:31;9.00;99.90
28767;DHT22;15921;52.034;20.650;2024-02-23T03:36:56;9.00;99.90
28767;DHT22;15921;52.034;20.650;2024-02-23T03:39:24;8.90;99.90
28767;DHT22;15921;52.034;20.650;2024-02-23T03:41:49;8.80;99.90
28767;DHT22;15921;52.034;20.650;2024-02-23T03:44:15;8.80;99.90
28767;DHT22;15921;52.034;20.650;2024-02-23T03:46:41;8.70;99.90
28767;DHT22;15921;52.034;20.650;2024-02-23T03:49:06;8.80;99.90
28767;DHT22;15921;52.034;20.650;2024-02-23T03:51:32;8.70;99.90
28767;DHT22;15921;52.034;20.650;2024-02-23T03:54:00;8.70;99.90
28767;DHT22;15921;52.034;20.650;2024-02-23T03:56:26;8.70;99.90
28767;DHT22;15921;52.034;20.650;2024-02-23T03:58:51;8.70;99.90
28767;DHT22;15921;52.034;20.650;2024-02-23T04:01:17;8.70;99.90
28767;DHT22;15921;52.034;20.650;2024-02-23T04:03:43;8.70;99.90
28767;DHT22;15921;52.034;20.650;2024-02-23T04:06:08;8.70;99.90
28767;DHT22;15921;52.034;20.650;2024-02-23T04:08:36;8.70;99.90
28767;DHT22;15921;52.034;20.650;2024-02-23T04:11:03;8.70;99.90
28767;DHT22;15921;52.034;20.650;2024-02-23T04:13:28;8.70;99.90
28767;DHT22;15921;52.034;20.650;2024-02-23T04:15:54;8.70;99.90
28767;DHT22;15921;52.034;20.650;2024-02-23T04:18:20;8.70;99.90
28767;DHT22;15921;52.034;20.650;2024-02-23T04:20:45;8.70;99.90
28767;DHT22;15921;52.034;20.650;2024-02-23T04:23:11;8.70;99.90
28767;DHT22;15921;52.034;20.650;2024-02-23T04:25:36;8.70;99.90
28767;DHT22;15921;52.034;20.650;2024-02-23T04:28:02;8.60;99.90
28767;DHT22;15921;52.034;20.650;2024-02-23T04:30:28;8.70;99.90
28767;DHT22;15921;52.034;20.650;2024-02-23T04:32:54;8.60;99.90
28767;DHT22;15921;52.034;20.650;2024-02-23T04:35:19;8.60;99.90
28767;DHT22;15921;52.034;20.650;2024-02-23T04:37:45;8.70;99.90
28767;DHT22;15921;52.034;20.650;2024-02-23T04:40:11;8.70;99.90
28767;DHT22;15921;52.034;20.650;2024-02-23T04:42:37;8.60;99.90
28767;DHT22;15921;52.034;20.650;2024-02-23T04:45:04;8.60;99.90
28767;DHT22;15921;52.034;20.650;2024-02-23T04:47:30;8.60;99.90
28767;DHT22;15921;52.034;20.650;2024-02-23T04:49:56;8.60;99.90
28767;DHT22;15921;52.034;20.650;2024-02-23T04:52:21;8.70;99.90
28767;DHT22;15921;52.034;20.650;2024-02-23T04:54:47;8.60;99.90
28767;DHT22;15921;52.034;20.650;2024-02-23T04:57:13;8.60;99.90
28767;DHT22;15921;52.034;20.650;2024-02-23T04:59:39;8.60;99.90
28767;DHT22;15921;52.034;20.650;2024-02-23T05:02:04;8.60;99.90
28767;DHT22;15921;52.034;20.650;2024-02-23T05:04:30;8.60;99.90
28767;DHT22;15921;52.034;20.650;2024-02-23T05:06:55;8.60;99.90
28767;DHT22;15921;52.034;20.650;2024-02-23T05:09:21;8.60;99.90
28767;DHT22;15921;52.034;20.650;2024-02-23T05:11:47;8.50;99.90
28767;DHT22;15921;52.034;20.650;2024-02-23T05:16:39;8.50;99.90
28767;DHT22;15921;52.034;20.650;2024-02-23T05:19:04;8.50;99.90
28767;DHT22;15921;52.034;20.650;2024-02-23T05:21:30;8.40;99.90
28767;DHT22;15921;52.034;20.650;2024-02-23T05:23:58;8.40;99.90
28767;DHT22;15921;52.034;20.650;2024-02-23T05:26:23;8.40;99.90
28767;DHT22;15921;52.034;20.650;2024-02-23T05:28:49;8.40;99.90
28767;DHT22;15921;52.034;20.650;2024-02-23T05:31:14;8.40;99.90
28767;DHT22;15921;52.034;20.650;2024-02-23T05:33:40;8.30;99.90
28767;DHT22;15921;52.034;20.650;2024-02-23T05:36:07;8.40;99.90
28767;DHT22;15921;52.034;20.650;2024-02-23T05:38:33;8.40;99.90
28767;DHT22;15921;52.034;20.650;2024-02-23T05:40:58;8.40;99.90
28767;DHT22;15921;52.034;20.650;2024-02-23T05:43:24;8.40;99.90
28767;DHT22;15921;52.034;20.650;2024-02-23T05:45:50;8.20;99.90
28767;DHT22;15921;52.034;20.650;2024-02-23T05:48:15;8.30;99.90
28767;DHT22;15921;52.034;20.650;2024-02-23T05:50:41;8.40;99.90
28767;DHT22;15921;52.034;20.650;2024-02-23T05:53:07;8.30;99.90
28767;DHT22;15921;52.034;20.650;2024-02-23T05:55:33;8.30;99.90
28767;DHT22;15921;52.034;20.650;2024-02-23T05:57:59;8.30;99.90
28767;DHT22;15921;52.034;20.650;2024-02-23T06:00:25;8.30;99.90
28767;DHT22;15921;52.034;20.650;2024-02-23T06:02:50;8.30;99.90
28767;DHT22;15921;52.034;20.650;2024-02-23T06:05:16;8.30;99.90
28767;DHT22;15921;52.034;20.650;2024-02-23T06:07:42;8.30;99.90
28767;DHT22;15921;52.034;20.650;2024-02-23T06:10:08;8.40;99.90
28767;DHT22;15921;52.034;20.650;2024-02-23T06:12:33;8.40;99.90
28767;DHT22;15921;52.034;20.650;2024-02-23T06:14:59;8.30;99.90
28767;DHT22;15921;52.034;20.650;2024-02-23T06:17:25;8.40;99.90
28767;DHT22;15921;52.034;20.650;2024-02-23T06:19:50;8.40;99.90
28767;DHT22;15921;52.034;20.650;2024-02-23T06:22:18;8.40;99.90
28767;DHT22;15921;52.034;20.650;2024-02-23T06:24:47;8.40;99.90
28767;DHT22;15921;52.034;20.650;2024-02-23T06:27:12;8.40;99.90
28767;DHT22;15921;52.034;20.650;2024-02-23T06:29:38;8.40;99.90
28767;DHT22;15921;52.034;20.650;2024-02-23T06:32:04;8.20;99.90
28767;DHT22;15921;52.034;20.650;2024-02-23T06:34:30;8.40;99.90
28767;DHT22;15921;52.034;20.650;2024-02-23T06:36:56;8.50;99.90
28767;DHT22;15921;52.034;20.650;2024-02-23T06:39:21;8.50;99.90
28767;DHT22;15921;52.034;20.650;2024-02-23T06:41:47;8.50;99.90
28767;DHT22;15921;52.034;20.650;2024-02-23T06:44:13;8.60;99.90
28767;DHT22;15921;52.034;20.650;2024-02-23T06:46:39;8.60;99.90
28767;DHT22;15921;52.034;20.650;2024-02-23T06:49:05;8.60;99.90
28767;DHT22;15921;52.034;20.650;2024-02-23T06:51:31;8.60;99.90
28767;DHT22;15921;52.034;20.650;2024-02-23T06:53:57;8.60;99.90
28767;DHT22;15921;52.034;20.650;2024-02-23T06:56:23;8.60;99.90
28767;DHT22;15921;52.034;20.650;2024-02-23T06:58:49;8.70;99.90
28767;DHT22;15921;52.034;20.650;2024-02-23T07:01:15;8.70;99.90
28767;DHT22;15921;52.034;20.650;2024-02-23T07:03:40;8.60;99.90
28767;DHT22;15921;52.034;20.650;2024-02-23T07:06:10;8.80;99.90
28767;DHT22;15921;52.034;20.650;2024-02-23T07:08:36;8.80;99.90
28767;DHT22;15921;52.034;20.650;2024-02-23T07:11:02;8.80;99.90
28767;DHT22;15921;52.034;20.650;2024-02-23T07:13:28;8.80;99.90
28767;DHT22;15921;52.034;20.650;2024-02-23T07:15:54;8.80;99.90
28767;DHT22;15921;52.034;20.650;2024-02-23T07:18:21;8.80;99.90
28767;DHT22;15921;52.034;20.650;2024-02-23T07:20:47;8.80;99.90
28767;DHT22;15921;52.034;20.650;2024-02-23T07:23:13;8.80;99.90
28767;DHT22;15921;52.034;20.650;2024-02-23T07:25:41;8.80;99.90
28767;DHT22;15921;52.034;20.650;2024-02-23T07:28:08;8.80;99.90
28767;DHT22;15921;52.034;20.650;2024-02-23T07:30:34;8.80;99.90
28767;DHT22;15921;52.034;20.650;2024-02-23T07:33:03;8.80;99.90
28767;DHT22;15921;52.034;20.650;2024-02-23T07:35:28;8.90;99.90
28767;DHT22;15921;52.034;20.650;2024-02-23T07:37:55;8.90;99.90
28767;DHT22;15921;52.034;20.650;2024-02-23T07:40:21;8.90;99.90
28767;DHT22;15921;52.034;20.650;2024-02-23T07:42:46;8.90;99.90
28767;DHT22;15921;52.034;20.650;2024-02-23T07:45:12;9.00;99.90
28767;DHT22;15921;52.034;20.650;2024-02-23T07:47:38;9.00;99.90
28767;DHT22;15921;52.034;20.650;2024-02-23T07:50:04;9.00;99.90
28767;DHT22;15921;52.034;20.650;2024-02-23T07:52:30;9.00;99.90
28767;DHT22;15921;52.034;20.650;2024-02-23T07:54:55;9.10;99.90
28767;DHT22;15921;52.034;20.650;2024-02-23T07:57:21;9.10;99.90
28767;DHT22;15921;52.034;20.650;2024-02-23T07:59:47;9.10;99.90
28767;DHT22;15921;52.034;20.650;2024-02-23T08:02:14;9.20;99.90
28767;DHT22;15921;52.034;20.650;2024-02-23T08:04:40;9.20;99.90
28767;DHT22;15921;52.034;20.650;2024-02-23T08:07:06;9.20;99.90
28767;DHT22;15921;52.034;20.650;2024-02-23T08:09:32;9.20;99.90
28767;DHT22;15921;52.034;20.650;2024-02-23T08:11:58;9.30;99.90
28767;DHT22;15921;52.034;20.650;2024-02-23T08:14:23;9.30;99.90
28767;DHT22;15921;52.034;20.650;2024-02-23T08:16:49;9.40;99.90
28767;DHT22;15921;52.034;20.650;2024-02-23T08:19:15;9.40;99.90
28767;DHT22;15921;52.034;20.650;2024-02-23T08:21:41;9.50;99.90
28767;DHT22;15921;52.034;20.650;2024-02-23T08:24:07;9.60;99.90
28767;DHT22;15921;52.034;20.650;2024-02-23T08:26:33;9.60;99.90
28767;DHT22;15921;52.034;20.650;2024-02-23T08:28:59;9.60;99.90
28767;DHT22;15921;52.034;20.650;2024-02-23T08:31:25;9.70;99.90
28767;DHT22;15921;52.034;20.650;2024-02-23T08:33:50;9.70;99.90
28767;DHT22;15921;52.034;20.650;2024-02-23T08:36:16;9.70;99.90
28767;DHT22;15921;52.034;20.650;2024-02-23T08:38:42;9.80;99.90
28767;DHT22;15921;52.034;20.650;2024-02-23T08:41:07;9.80;99.90
28767;DHT22;15921;52.034;20.650;2024-02-23T08:43:34;9.80;99.90
28767;DHT22;15921;52.034;20.650;2024-02-23T08:46:00;9.90;99.90
28767;DHT22;15921;52.034;20.650;2024-02-23T08:48:25;9.90;99.90
28767;DHT22;15921;52.034;20.650;2024-02-23T08:50:51;9.90;99.90
28767;DHT22;15921;52.034;20.650;2024-02-23T08:53:16;9.90;99.90
28767;DHT22;15921;52.034;20.650;2024-02-23T08:55:42;10.00;99.90
28767;DHT22;15921;52.034;20.650;2024-02-23T08:58:08;10.10;99.90
28767;DHT22;15921;52.034;20.650;2024-02-23T09:00:35;10.30;99.90
28767;DHT22;15921;52.034;20.650;2024-02-23T09:03:02;10.40;99.90
28767;DHT22;15921;52.034;20.650;2024-02-23T09:05:28;10.60;99.90
28767;DHT22;15921;52.034;20.650;2024-02-23T09:07:54;10.80;99.90
28767;DHT22;15921;52.034;20.650;2024-02-23T09:10:20;10.90;99.90
28767;DHT22;15921;52.034;20.650;2024-02-23T09:12:46;11.00;99.90
28767;DHT22;15921;52.034;20.650;2024-02-23T09:15:12;11.10;99.90
28767;DHT22;15921;52.034;20.650;2024-02-23T09:17:40;11.20;99.90
28767;DHT22;15921;52.034;20.650;2024-02-23T09:20:07;11.30;99.90
28767;DHT22;15921;52.034;20.650;2024-02-23T09:22:33;11.30;99.90
28767;DHT22;15921;52.034;20.650;2024-02-23T09:24:59;11.40;99.90
28767;DHT22;15921;52.034;20.650;2024-02-23T09:27:24;11.40;99.90
28767;DHT22;15921;52.034;20.650;2024-02-23T09:29:50;11.50;99.90
28767;DHT22;15921;52.034;20.650;2024-02-23T09:32:16;11.50;99.90
28767;DHT22;15921;52.034;20.650;2024-02-23T09:34:41;11.30;99.90
28767;DHT22;15921;52.034;20.650;2024-02-23T09:37:08;11.30;99.90
28767;DHT22;15921;52.034;20.650;2024-02-23T09:39:33;11.20;99.90
28767;DHT22;15921;52.034;20.650;2024-02-23T09:42:01;11.20;99.90
28767;DHT22;15921;52.034;20.650;2024-02-23T09:44:32;11.10;99.90
28767;DHT22;15921;52.034;20.650;2024-02-23T09:47:02;11.10;99.90
28767;DHT22;15921;52.034;20.650;2024-02-23T09:49:40;11.10;99.90
28767;DHT22;15921;52.034;20.650;2024-02-23T09:52:09;11.10;99.90
28767;DHT22;15921;52.034;20.650;2024-02-23T09:54:37;11.10;99.90
28767;DHT22;15921;52.034;20.650;2024-02-23T09:57:08;11.10;99.90
28767;DHT22;15921;52.034;20.650;2024-02-23T09:59:37;11.40;99.90
28767;DHT22;15921;52.034;20.650;2024-02-23T10:02:10;11.60;99.90
28767;DHT22;15921;52.034;20.650;2024-02-23T10:04:40;11.60;99.90
28767;DHT22;15921;52.034;20.650;2024-02-23T10:07:07;11.70;99.90
28767;DHT22;15921;52.034;20.650;2024-02-23T10:09:32;11.80;99.90
28767;DHT22;15921;52.034;20.650;2024-02-23T10:11:58;11.70;99.90
28767;DHT22;15921;52.034;20.650;2024-02-23T10:14:24;11.80;99.90
28767;DHT22;15921;52.034;20.650;2024-02-23T10:16:50;11.70;99.90
28767;DHT22;15921;52.034;20.650;2024-02-23T10:19:19;11.60;99.90
28767;DHT22;15921;52.034;20.650;2024-02-23T10:21:46;11.50;99.90
28767;DHT22;15921;52.034;20.650;2024-02-23T10:24:11;11.40;99.90
28767;DHT22;15921;52.034;20.650;2024-02-23T10:26:37;11.20;99.90
28767;DHT22;15921;52.034;20.650;2024-02-23T10:29:03;11.30;99.90
28767;DHT22;15921;52.034;20.650;2024-02-23T10:31:34;11.30;99.90
28767;DHT22;15921;52.034;20.650;2024-02-23T10:34:04;11.30;99.90
28767;DHT22;15921;52.034;20.650;2024-02-23T10:36:36;11.30;99.90
28767;DHT22;15921;52.034;20.650;2024-02-23T10:39:02;11.30;99.90
28767;DHT22;15921;52.034;20.650;2024-02-23T10:41:33;11.30;99.90
28767;DHT22;15921;52.034;20.650;2024-02-23T10:44:00;11.20;99.90
28767;DHT22;15921;52.034;20.650;2024-02-23T10:46:26;11.20;99.90
28767;DHT22;15921;52.034;20.650;2024-02-23T10:48:54;11.20;99.90
28767;DHT22;15921;52.034;20.650;2024-02-23T10:51:21;11.20;99.90
28767;DHT22;15921;52.034;20.650;2024-02-23T10:53:49;11.20;99.90
28767;DHT22;15921;52.034;20.650;2024-02-23T10:56:15;11.10;99.90
28767;DHT22;15921;52.034;20.650;2024-02-23T10:58:41;11.00;99.90
28767;DHT22;15921;52.034;20.650;2024-02-23T11:01:07;11.00;99.90
28767;DHT22;15921;52.034;20.650;2024-02-23T11:03:36;11.00;99.90
28767;DHT22;15921;52.034;20.650;2024-02-23T11:06:05;11.00;99.90
28767;DHT22;15921;52.034;20.650;2024-02-23T11:08:33;11.00;99.90
28767;DHT22;15921;52.034;20.650;2024-02-23T11:11:11;11.00;99.90
28767;DHT22;15921;52.034;20.650;2024-02-23T11:13:37;11.00;99.90
28767;DHT22;15921;52.034;20.650;2024-02-23T11:16:08;11.10;99.90
28767;DHT22;15921;52.034;20.650;2024-02-23T11:18:39;11.10;99.90
28767;DHT22;15921;52.034;20.650;2024-02-23T11:21:08;11.30;99.90
28767;DHT22;15921;52.034;20.650;2024-02-23T11:23:45;11.40;99.90
28767;DHT22;15921;52.034;20.650;2024-02-23T11:26:14;11.60;99.90
28767;DHT22;15921;52.034;20.650;2024-02-23T11:31:18;11.80;99.90
28767;DHT22;15921;52.034;20.650;2024-02-23T11:33:52;11.90;99.90
28767;DHT22;15921;52.034;20.650;2024-02-23T11:36:34;12.00;99.90
28767;DHT22;15921;52.034;20.650;2024-02-23T11:39:01;12.20;99.90
28767;DHT22;15921;52.034;20.650;2024-02-23T11:41:28;12.20;99.90
28767;DHT22;15921;52.034;20.650;2024-02-23T11:43:55;12.20;99.90
28767;DHT22;15921;52.034;20.650;2024-02-23T11:46:22;12.20;99.90
28767;DHT22;15921;52.034;20.650;2024-02-23T11:48:49;12.30;99.90
28767;DHT22;15921;52.034;20.650;2024-02-23T11:51:22;12.30;99.90
28767;DHT22;15921;52.034;20.650;2024-02-23T11:53:49;12.20;99.90
28767;DHT22;15921;52.034;20.650;2024-02-23T11:56:15;12.10;99.90
28767;DHT22;15921;52.034;20.650;2024-02-23T11:58:41;12.10;99.90
28767;DHT22;15921;52.034;20.650;2024-02-23T12:01:07;12.10;99.90
28767;DHT22;15921;52.034;20.650;2024-02-23T12:03:33;12.00;99.90
28767;DHT22;15921;52.034;20.650;2024-02-23T12:06:03;12.00;99.90
28767;DHT22;15921;52.034;20.650;2024-02-23T12:08:32;12.00;99.90
28767;DHT22;15921;52.034;20.650;2024-02-23T12:11:05;12.00;99.90
28767;DHT22;15921;52.034;20.650;2024-02-23T12:13:31;11.90;99.90
28767;DHT22;15921;52.034;20.650;2024-02-23T12:15:57;12.10;99.90
28767;DHT22;15921;52.034;20.650;2024-02-23T12:18:23;12.30;99.90
28767;DHT22;15921;52.034;20.650;2024-02-23T12:20:52;12.30;99.90
28767;DHT22;15921;52.034;20.650;2024-02-23T12:23:17;12.30;99.90
28767;DHT22;15921;52.034;20.650;2024-02-23T12:25:54;12.30;99.90
28767;DHT22;15921;52.034;20.650;2024-02-23T12:28:20;12.10;99.90
28767;DHT22;15921;52.034;20.650;2024-02-23T12:30:46;12.00;99.90
28767;DHT22;15921;52.034;20.650;2024-02-23T12:33:15;11.80;99.90
28767;DHT22;15921;52.034;20.650;2024-02-23T12:35:41;11.60;99.90
28767;DHT22;15921;52.034;20.650;2024-02-23T12:38:07;11.50;99.90
28767;DHT22;15921;52.034;20.650;2024-02-23T12:40:32;11.50;99.90
28767;DHT22;15921;52.034;20.650;2024-02-23T12:42:58;11.50;99.90
28767;DHT22;15921;52.034;20.650;2024-02-23T12:45:24;11.50;99.90
28767;DHT22;15921;52.034;20.650;2024-02-23T12:47:50;11.50;99.90
28767;DHT22;15921;52.034;20.650;2024-02-23T12:50:16;11.60;99.90
28767;DHT22;15921;52.034;20.650;2024-02-23T12:52:42;11.70;99.90
28767;DHT22;15921;52.034;20.650;2024-02-23T12:55:08;11.80;99.90
28767;DHT22;15921;52.034;20.650;2024-02-23T12:57:34;11.90;99.90
28767;DHT22;15921;52.034;20.650;2024-02-23T13:00:00;11.80;99.90
28767;DHT22;15921;52.034;20.650;2024-02-23T13:02:26;11.70;99.90
28767;DHT22;15921;52.034;20.650;2024-02-23T13:04:51;11.70;99.90
28767;DHT22;15921;52.034;20.650;2024-02-23T13:07:17;11.80;99.90
28767;DHT22;15921;52.034;20.650;2024-02-23T13:09:44;11.80;99.90
28767;DHT22;15921;52.034;20.650;2024-02-23T13:12:10;11.80;99.90
28767;DHT22;15921;52.034;20.650;2024-02-23T13:14:36;11.90;99.90
28767;DHT22;15921;52.034;20.650;2024-02-23T13:17:01;11.90;99.90
28767;DHT22;15921;52.034;20.650;2024-02-23T13:19:28;11.90;99.90
28767;DHT22;15921;52.034;20.650;2024-02-23T13:21:54;12.00;99.90
28767;DHT22;15921;52.034;20.650;2024-02-23T13:24:19;11.90;99.90
28767;DHT22;15921;52.034;20.650;2024-02-23T13:26:46;11.90;99.90
28767;DHT22;15921;52.034;20.650;2024-02-23T13:29:11;11.80;99.90
28767;DHT22;15921;52.034;20.650;2024-02-23T13:31:37;11.70;99.90
28767;DHT22;15921;52.034;20.650;2024-02-23T13:34:04;11.70;99.90
28767;DHT22;15921;52.034;20.650;2024-02-23T13:36:30;11.70;99.90
28767;DHT22;15921;52.034;20.650;2024-02-23T13:38:56;11.70;99.90
28767;DHT22;15921;52.034;20.650;2024-02-23T13:41:22;11.70;99.90
28767;DHT22;15921;52.034;20.650;2024-02-23T13:43:48;11.70;99.90
28767;DHT22;15921;52.034;20.650;2024-02-23T13:46:13;11.60;99.90
28767;DHT22;15921;52.034;20.650;2024-02-23T13:48:39;11.50;99.90
28767;DHT22;15921;52.034;20.650;2024-02-23T13:51:05;11.50;99.90
28767;DHT22;15921;52.034;20.650;2024-02-23T13:53:31;11.50;99.90
28767;DHT22;15921;52.034;20.650;2024-02-23T13:55:58;11.50;99.90
28767;DHT22;15921;52.034;20.650;2024-02-23T13:58:27;11.50;99.90
28767;DHT22;15921;52.034;20.650;2024-02-23T14:00:53;11.70;99.90
28767;DHT22;15921;52.034;20.650;2024-02-23T14:03:19;11.70;99.90
28767;DHT22;15921;52.034;20.650;2024-02-23T14:05:45;11.80;99.90
28767;DHT22;15921;52.034;20.650;2024-02-23T14:08:12;11.80;99.90
28767;DHT22;15921;52.034;20.650;2024-02-23T14:10:38;11.80;99.90
28767;DHT22;15921;52.034;20.650;2024-02-23T14:13:05;11.80;99.90
28767;DHT22;15921;52.034;20.650;2024-02-23T14:15:31;11.70;99.90
28767;DHT22;15921;52.034;20.650;2024-02-23T14:17:57;11.70;99.90
28767;DHT22;15921;52.034;20.650;2024-02-23T14:20:23;11.70;99.90
28767;DHT22;15921;52.034;20.650;2024-02-23T14:22:49;11.60;99.90
28767;DHT22;15921;52.034;20.650;2024-02-23T14:25:15;11.70;99.90
28767;DHT22;15921;52.034;20.650;2024-02-23T14:27:41;11.70;99.90
28767;DHT22;15921;52.034;20.650;2024-02-23T14:30:08;11.60;99.90
28767;DHT22;15921;52.034;20.650;2024-02-23T14:32:34;11.70;99.90
28767;DHT22;15921;52.034;20.650;2024-02-23T14:35:02;11.70;99.90
28767;DHT22;15921;52.034;20.650;2024-02-23T14:37:29;11.70;99.90
28767;DHT22;15921;52.034;20.650;2024-02-23T14:39:54;11.80;99.90
28767;DHT22;15921;52.034;20.650;2024-02-23T14:42:20;11.80;99.90
28767;DHT22;15921;52.034;20.650;2024-02-23T14:44:46;11.80;99.90
28767;DHT22;15921;52.034;20.650;2024-02-23T14:47:12;11.80;99.90
28767;DHT22;15921;52.034;20.650;2024-02-23T14:49:38;11.80;99.90
28767;DHT22;15921;52.034;20.650;2024-02-23T14:52:04;11.70;99.90
28767;DHT22;15921;52.034;20.650;2024-02-23T14:54:30;11.60;99.90
28767;DHT22;15921;52.034;20.650;2024-02-23T14:56:56;11.60;99.90
28767;DHT22;15921;52.034;20.650;2024-02-23T14:59:22;11.50;99.90
28767;DHT22;15921;52.034;20.650;2024-02-23T15:01:48;11.40;99.90
28767;DHT22;15921;52.034;20.650;2024-02-23T15:04:13;11.40;99.90
28767;DHT22;15921;52.034;20.650;2024-02-23T15:06:39;11.40;99.90
28767;DHT22;15921;52.034;20.650;2024-02-23T15:09:05;11.40;99.90
28767;DHT22;15921;52.034;20.650;2024-02-23T15:11:31;11.40;99.90
28767;DHT22;15921;52.034;20.650;2024-02-23T15:13:57;11.40;99.90
28767;DHT22;15921;52.034;20.650;2024-02-23T15:16:27;11.40;99.90
28767;DHT22;15921;52.034;20.650;2024-02-23T15:18:53;11.40;99.90
28767;DHT22;15921;52.034;20.650;2024-02-23T15:21:19;11.40;99.90
28767;DHT22;15921;52.034;20.650;2024-02-23T15:23:45;11.30;99.90
28767;DHT22;15921;52.034;20.650;2024-02-23T15:26:11;11.40;99.90